Quiberon — FNQY — position and weather

sailwx.info

Track history (hours):
 
Tides and Currents Weather Stations Pressure Air Temp Water Temp Dewpoint Dewpoint Depression Visibility Wind Speed Wind Dir Waves Ship Positions

Quiberon

Operator: Brittany Ferries

Last reported at 2017-Aug-23 01:49 UTC. Time now 2017-Aug-23 13:39 UTC.
Position N 44°53' W 000°32'.

Length 25 m; draft 4.8 m.

Type: Tug. MMSI: 228296800.

Date/timePositionNaut miles runAvg speedWind from/ knotsBaromVisibWave heightAir tempDewpointWater temp
2017-Aug-23 01:49N 44°53' W 000°32'0 0.0
2017-Aug-23 01:25N 44°53' W 000°32'0 0.0
2017-Aug-23 00:58N 44°53' W 000°32'0 0.0
2017-Aug-23 00:24N 44°53' W 000°32'7 1.3
2017-Aug-22 19:13N 44°60' W 000°33'0 1.3
2017-Aug-22 18:55N 45°00' W 000°34'7 0.6
2017-Aug-22 07:25N 44°53' W 000°32'4 9.0
2017-Aug-22 06:59N 44°57' W 000°33'3 5.6
2017-Aug-22 06:30N 44°60' W 000°33'0 0.1
2017-Aug-22 06:00N 44°60' W 000°33'1 2.6
2017-Aug-22 05:30N 45°01' W 000°35'1 2.1
2017-Aug-22 05:01N 45°00' W 000°34'3 6.8
2017-Aug-22 04:31N 44°57' W 000°33'3 6.3
2017-Aug-22 04:00N 44°54' W 000°32'0 0.6
2017-Aug-22 03:30N 44°53' W 000°32'0 0.0
2017-Aug-21 04:25N 44°53' W 000°32'0 0.0
2017-Aug-21 04:00N 44°53' W 000°32'0 0.0
2017-Aug-21 03:29N 44°53' W 000°32'0 0.0
2017-Aug-21 02:56N 44°53' W 000°32'0 0.0
2017-Aug-21 02:31N 44°53' W 000°32'  
2017-Aug-17 02:50N 44°60' W 000°33'1 1.8
2017-Aug-17 02:28N 45°00' W 000°34'0 0.1
2017-Aug-17 01:49N 45°00' W 000°34'3 0.1
2017-Aug-14 22:42N 44°57' W 000°33'  
Track history (hours):
 
Tides and Currents Weather Stations Pressure Air Temp Water Temp Dewpoint Dewpoint Depression Visibility Wind Speed Wind Dir Waves Ship Positions

Quiberon

Operator: Brittany Ferries

Last reported at 2017-Aug-23 01:49 UTC. Time now 2017-Aug-23 13:39 UTC.
Position N 44°53' W 000°32'.

Length 25 m; draft 4.8 m.

Type: Tug. MMSI: 228296800.

Date/timePositionNaut miles runAvg speedWind from/ knotsBaromVisibWave heightAir tempDewpointWater temp
2017-Aug-23 01:49N 44°53' W 000°32'0 0.0
2017-Aug-23 01:25N 44°53' W 000°32'0 0.0
2017-Aug-23 00:58N 44°53' W 000°32'0 0.0
2017-Aug-23 00:24N 44°53' W 000°32'7 1.3
2017-Aug-22 19:13N 44°60' W 000°33'0 1.3
2017-Aug-22 18:55N 45°00' W 000°34'7 0.6
2017-Aug-22 07:25N 44°53' W 000°32'4 9.0
2017-Aug-22 06:59N 44°57' W 000°33'3 5.6
2017-Aug-22 06:30N 44°60' W 000°33'0 0.1
2017-Aug-22 06:00N 44°60' W 000°33'1 2.6
2017-Aug-22 05:30N 45°01' W 000°35'1 2.1
2017-Aug-22 05:01N 45°00' W 000°34'3 6.8
2017-Aug-22 04:31N 44°57' W 000°33'3 6.3
2017-Aug-22 04:00N 44°54' W 000°32'0 0.6
2017-Aug-22 03:30N 44°53' W 000°32'0 0.0
2017-Aug-21 04:25N 44°53' W 000°32'0 0.0
2017-Aug-21 04:00N 44°53' W 000°32'0 0.0
2017-Aug-21 03:29N 44°53' W 000°32'0 0.0
2017-Aug-21 02:56N 44°53' W 000°32'0 0.0
2017-Aug-21 02:31N 44°53' W 000°32'  
2017-Aug-17 02:50N 44°60' W 000°33'1 1.8
2017-Aug-17 02:28N 45°00' W 000°34'0 0.1
2017-Aug-17 01:49N 45°00' W 000°34'3 0.1
2017-Aug-14 22:42N 44°57' W 000°33'  

Dump ship's entire track history